createdAt,value
2019-03-29T00:00:47.862Z,7.80
2019-03-29T00:03:51.293Z,7.80
2019-03-29T00:06:54.749Z,7.80
2019-03-29T00:09:58.203Z,7.90
2019-03-29T00:13:01.637Z,7.90
2019-03-29T00:16:05.096Z,7.90
2019-03-29T00:19:08.552Z,8.00
2019-03-29T00:22:12.004Z,8.00
2019-03-29T00:25:15.466Z,7.90
2019-03-29T00:28:18.892Z,7.90
2019-03-29T00:31:22.352Z,7.80
2019-03-29T00:34:25.781Z,7.80
2019-03-29T00:37:29.241Z,7.70
2019-03-29T00:40:33.203Z,7.70
2019-03-29T00:43:36.805Z,7.80
2019-03-29T00:46:40.232Z,7.90
2019-03-29T00:49:43.702Z,8.00
2019-03-29T00:52:47.116Z,8.10
2019-03-29T00:55:50.576Z,8.20
2019-03-29T00:58:54.012Z,8.30
2019-03-29T01:01:57.477Z,8.30
2019-03-29T01:05:00.937Z,8.30
2019-03-29T01:08:08.217Z,8.30
2019-03-29T01:11:09.732Z,8.30
2019-03-29T01:14:13.165Z,8.20
2019-03-29T01:17:16.624Z,8.20
2019-03-29T01:20:20.056Z,8.20
2019-03-29T01:23:24.086Z,8.10
2019-03-29T01:26:27.872Z,8.10
2019-03-29T01:29:31.335Z,8.10
2019-03-29T01:32:34.768Z,8.10
2019-03-29T01:35:38.224Z,8.10
2019-03-29T01:38:41.681Z,8.10
2019-03-29T01:41:45.116Z,8.10
2019-03-29T01:44:48.573Z,8.10
2019-03-29T01:47:52.024Z,8.10
2019-03-29T01:50:55.517Z,8.10
2019-03-29T01:53:59.036Z,8.10
2019-03-29T01:57:02.455Z,8.10
2019-03-29T02:00:06.757Z,8.10
2019-03-29T02:03:10.212Z,8.20
2019-03-29T02:06:13.668Z,8.20
2019-03-29T02:09:17.123Z,8.10
2019-03-29T02:12:20.562Z,8.10
2019-03-29T02:15:24.028Z,8.10
2019-03-29T02:18:27.466Z,8.00
2019-03-29T02:21:30.920Z,8.00
2019-03-29T02:24:34.392Z,8.00
2019-03-29T02:27:38.102Z,8.10
2019-03-29T02:30:41.557Z,8.10
2019-03-29T02:33:44.991Z,8.00
2019-03-29T02:36:48.449Z,8.00
2019-03-29T02:39:51.894Z,7.90
2019-03-29T02:42:55.343Z,7.80
2019-03-29T02:45:58.803Z,7.80
2019-03-29T02:49:02.292Z,7.80
2019-03-29T02:52:05.741Z,7.80
2019-03-29T02:55:09.624Z,7.80
2019-03-29T02:58:13.097Z,7.80
2019-03-29T03:01:16.553Z,7.70
2019-03-29T03:04:19.981Z,7.70
2019-03-29T03:07:23.437Z,7.70
2019-03-29T03:10:26.877Z,7.70
2019-03-29T03:13:30.335Z,7.70
2019-03-29T03:16:33.766Z,7.70
2019-03-29T03:19:37.231Z,7.70
2019-03-29T03:22:40.661Z,7.70
2019-03-29T03:25:44.128Z,7.60
2019-03-29T03:28:47.590Z,7.60
2019-03-29T03:31:51.031Z,7.60
2019-03-29T03:34:54.517Z,7.60
2019-03-29T03:37:58.027Z,7.60
2019-03-29T03:41:01.493Z,7.60
2019-03-29T03:44:04.949Z,7.50
2019-03-29T03:47:08.410Z,7.50
2019-03-29T03:50:38.712Z,7.50
2019-03-29T03:53:42.186Z,7.50
2019-03-29T03:56:46.052Z,7.50
2019-03-29T03:59:50.465Z,7.50
2019-03-29T04:02:54.203Z,7.60
2019-03-29T04:05:57.839Z,7.60
2019-03-29T04:09:01.269Z,7.70
2019-03-29T04:12:04.733Z,7.80
2019-03-29T04:15:08.297Z,7.80
2019-03-29T04:18:15.542Z,7.90
2019-03-29T04:21:16.947Z,8.00
2019-03-29T04:24:20.405Z,8.00
2019-03-29T04:27:23.834Z,8.00
2019-03-29T04:30:27.303Z,8.00
2019-03-29T04:33:30.735Z,8.00
2019-03-29T04:36:34.193Z,7.90
2019-03-29T04:39:37.643Z,8.00
2019-03-29T04:42:41.084Z,7.90
2019-03-29T04:45:44.537Z,8.00
2019-03-29T04:48:47.969Z,8.00
2019-03-29T04:51:51.420Z,8.00
2019-03-29T04:54:54.884Z,8.00
2019-03-29T04:57:58.405Z,8.00
2019-03-29T05:01:01.862Z,8.00
2019-03-29T05:04:05.296Z,8.00
2019-03-29T05:07:08.762Z,8.00
2019-03-29T05:10:21.093Z,8.00
2019-03-29T05:13:17.412Z,8.00
2019-03-29T05:16:20.908Z,8.10
2019-03-29T05:19:24.336Z,8.10
2019-03-29T05:22:27.809Z,8.10
2019-03-29T05:25:31.257Z,8.20
2019-03-29T05:28:34.692Z,8.20
2019-03-29T05:31:38.156Z,8.20
2019-03-29T05:34:41.596Z,8.20
2019-03-29T05:37:45.276Z,8.30
2019-03-29T05:40:48.714Z,8.30
2019-03-29T05:43:52.176Z,8.40
2019-03-29T05:46:55.612Z,8.40
2019-03-29T05:49:59.072Z,8.50
2019-03-29T05:53:02.529Z,8.60
2019-03-29T05:56:05.960Z,8.60
2019-03-29T05:59:09.419Z,8.60
2019-03-29T06:02:12.877Z,8.60
2019-03-29T06:05:16.316Z,8.60
2019-03-29T06:08:19.776Z,8.60
2019-03-29T06:11:23.225Z,8.70
2019-03-29T06:14:26.686Z,8.80
2019-03-29T06:17:30.142Z,8.80
2019-03-29T06:20:33.605Z,8.80
2019-03-29T06:23:37.036Z,8.80
2019-03-29T06:26:40.509Z,8.80
2019-03-29T06:29:43.949Z,8.90
2019-03-29T06:32:47.583Z,9.10
2019-03-29T06:35:51.896Z,9.20
2019-03-29T06:38:56.364Z,9.30
2019-03-29T06:41:59.809Z,9.50
2019-03-29T06:45:03.536Z,9.60
2019-03-29T06:48:06.972Z,9.70
2019-03-29T06:51:10.432Z,9.90
2019-03-29T06:54:13.891Z,10.20
2019-03-29T06:57:17.426Z,10.40
2019-03-29T07:00:20.862Z,10.70
2019-03-29T07:03:24.342Z,10.90
2019-03-29T07:06:30.408Z,11.20
2019-03-29T07:09:33.037Z,12.10
2019-03-29T07:12:36.500Z,14.10
2019-03-29T07:15:40.211Z,16.30
2019-03-29T07:18:43.677Z,18.20
2019-03-29T07:21:47.116Z,19.70
2019-03-29T07:24:50.589Z,20.90
2019-03-29T07:27:54.053Z,21.10
2019-03-29T07:30:59.965Z,22.30
2019-03-29T07:34:03.424Z,22.30
2019-03-29T07:37:06.868Z,22.80
2019-03-29T07:40:10.969Z,23.00
2019-03-29T07:43:14.405Z,23.00
2019-03-29T07:46:17.869Z,22.80
2019-03-29T07:49:21.333Z,22.80
2019-03-29T07:52:24.778Z,22.20
2019-03-29T07:55:28.238Z,22.30
2019-03-29T07:58:31.677Z,22.50
2019-03-29T08:01:35.894Z,22.30
2019-03-29T08:04:39.646Z,22.00
2019-03-29T08:07:43.080Z,22.00
2019-03-29T08:10:46.532Z,21.30
2019-03-29T08:13:50.018Z,21.30
2019-03-29T08:16:53.529Z,21.40
2019-03-29T08:20:41.758Z,21.30
2019-03-29T08:23:28.803Z,21.30
2019-03-29T08:26:31.523Z,20.60
2019-03-29T08:29:35.002Z,20.50
2019-03-29T08:32:38.428Z,20.70
2019-03-29T08:35:41.888Z,21.30
2019-03-29T08:38:45.326Z,21.70
2019-03-29T08:41:59.492Z,21.70
2019-03-29T08:44:53.978Z,21.80
2019-03-29T08:47:57.479Z,22.00
2019-03-29T08:51:00.929Z,22.00
2019-03-29T08:54:04.584Z,21.70
2019-03-29T08:57:10.629Z,20.60
2019-03-29T09:00:15.892Z,19.60
2019-03-29T09:03:18.688Z,19.20
2019-03-29T09:06:22.312Z,19.00
2019-03-29T09:09:25.821Z,18.70
2019-03-29T09:12:29.276Z,18.30
2019-03-29T09:15:32.755Z,18.00
2019-03-29T09:18:36.371Z,18.10
2019-03-29T09:21:39.797Z,18.00
2019-03-29T09:24:43.265Z,18.10
2019-03-29T09:27:46.707Z,17.90
2019-03-29T09:30:50.168Z,17.60
2019-03-29T09:33:53.607Z,17.60
2019-03-29T09:36:59.751Z,17.30
2019-03-29T09:40:02.244Z,17.00
2019-03-29T09:43:07.972Z,16.90
2019-03-29T09:46:10.925Z,16.70
2019-03-29T09:49:14.392Z,16.60
2019-03-29T09:52:17.822Z,16.70
2019-03-29T09:55:21.428Z,16.70
2019-03-29T09:58:24.862Z,16.90
2019-03-29T10:01:28.391Z,16.90
2019-03-29T10:04:32.036Z,17.10
2019-03-29T10:07:35.488Z,17.40
2019-03-29T10:10:38.944Z,17.70
2019-03-29T10:13:42.510Z,18.00
2019-03-29T10:16:46.043Z,18.20
2019-03-29T10:19:49.982Z,18.10
2019-03-29T10:22:53.621Z,18.10
2019-03-29T10:25:58.622Z,18.40
2019-03-29T10:29:02.399Z,18.90
2019-03-29T10:32:09.279Z,19.10
2019-03-29T10:35:12.980Z,19.40
2019-03-29T10:38:18.275Z,19.60
2019-03-29T10:41:22.673Z,19.60
2019-03-29T10:44:26.512Z,19.40
2019-03-29T10:47:43.321Z,19.30
2019-03-29T10:50:35.209Z,19.20
2019-03-29T10:53:38.664Z,19.20
2019-03-29T10:56:42.106Z,19.20
2019-03-29T10:59:45.560Z,19.10
2019-03-29T11:02:49.000Z,18.70
2019-03-29T11:05:52.463Z,18.40
2019-03-29T11:08:55.908Z,18.40
2019-03-29T11:11:59.358Z,18.30
2019-03-29T11:15:06.339Z,18.20
2019-03-29T11:18:08.056Z,18.20
2019-03-29T11:21:11.527Z,18.00
2019-03-29T11:24:14.956Z,18.00
2019-03-29T11:27:18.402Z,17.70
2019-03-29T11:30:21.833Z,17.50
2019-03-29T11:33:33.763Z,17.40
2019-03-29T11:36:37.196Z,17.20
2019-03-29T11:39:40.660Z,16.80
2019-03-29T11:42:44.096Z,16.50
2019-03-29T11:45:47.560Z,16.30
2019-03-29T11:48:50.996Z,16.10
2019-03-29T11:51:54.469Z,16.00
2019-03-29T11:54:57.973Z,15.90
2019-03-29T11:58:01.437Z,15.80
2019-03-29T12:01:05.601Z,15.70
2019-03-29T12:04:09.400Z,15.50
2019-03-29T12:07:12.997Z,15.50
2019-03-29T12:10:16.457Z,15.50
2019-03-29T12:13:19.890Z,15.50
2019-03-29T12:16:23.369Z,15.60
2019-03-29T12:19:26.804Z,15.40
2019-03-29T12:22:30.256Z,15.40
2019-03-29T12:25:33.720Z,15.50
2019-03-29T12:28:37.152Z,15.70
2019-03-29T12:31:40.627Z,15.80
2019-03-29T12:34:44.067Z,15.70
2019-03-29T12:37:47.567Z,15.80
2019-03-29T12:40:51.075Z,15.60
2019-03-29T12:43:55.968Z,15.50
2019-03-29T12:46:59.660Z,15.50
2019-03-29T12:50:04.093Z,15.60
2019-03-29T12:53:07.520Z,15.70
2019-03-29T12:56:10.993Z,15.50
2019-03-29T12:59:14.437Z,15.60
2019-03-29T13:02:18.537Z,15.50
2019-03-29T13:05:21.964Z,15.60
2019-03-29T13:08:25.420Z,15.70
2019-03-29T13:11:28.856Z,15.60
2019-03-29T13:14:32.325Z,15.50
2019-03-29T13:17:35.756Z,15.40
2019-03-29T13:20:40.061Z,15.30
2019-03-29T13:23:43.532Z,15.20
2019-03-29T13:26:47.037Z,15.30
2019-03-29T13:29:50.497Z,15.20
2019-03-29T13:32:53.956Z,15.20
2019-03-29T13:35:57.390Z,15.20
2019-03-29T13:39:00.881Z,15.10
2019-03-29T13:42:04.517Z,15.10
2019-03-29T13:45:09.182Z,15.00
2019-03-29T13:48:12.700Z,15.10
2019-03-29T13:51:16.144Z,15.00
2019-03-29T13:54:19.687Z,15.00
2019-03-29T13:57:23.109Z,15.10
2019-03-29T14:00:26.577Z,15.10
2019-03-29T14:03:30.008Z,15.10
2019-03-29T14:06:33.476Z,15.10
2019-03-29T14:09:36.916Z,15.00
2019-03-29T14:12:40.384Z,15.00
2019-03-29T14:15:43.812Z,15.00
2019-03-29T14:18:47.277Z,15.00
2019-03-29T14:21:50.709Z,15.00
2019-03-29T14:24:54.369Z,14.90
2019-03-29T14:27:57.885Z,15.00
2019-03-29T14:31:01.364Z,15.00
2019-03-29T14:34:04.871Z,14.90
2019-03-29T14:37:08.515Z,14.80
2019-03-29T14:40:13.515Z,14.90
2019-03-29T14:43:17.286Z,15.00
2019-03-29T14:46:20.793Z,15.00
2019-03-29T14:49:24.257Z,15.00
2019-03-29T14:52:27.736Z,15.00
2019-03-29T14:55:31.233Z,15.00
2019-03-29T14:58:34.688Z,15.00
2019-03-29T15:01:38.148Z,15.00
2019-03-29T15:04:41.618Z,14.90
2019-03-29T15:07:45.078Z,14.90
2019-03-29T15:10:48.506Z,14.90
2019-03-29T15:13:51.969Z,14.80
2019-03-29T15:16:55.404Z,14.80
2019-03-29T15:19:58.863Z,14.80
2019-03-29T15:23:02.314Z,14.80
2019-03-29T15:26:05.776Z,14.80
2019-03-29T15:29:09.248Z,14.80
2019-03-29T15:32:12.680Z,14.80
2019-03-29T15:35:16.140Z,14.80
2019-03-29T15:38:19.603Z,14.80
2019-03-29T15:41:23.136Z,14.70
2019-03-29T15:44:26.575Z,14.70
2019-03-29T15:47:30.033Z,14.70
2019-03-29T15:50:33.487Z,14.60
2019-03-29T15:53:37.009Z,14.50
2019-03-29T15:56:40.461Z,14.50
2019-03-29T15:59:43.904Z,14.50
2019-03-29T16:02:47.365Z,14.50
2019-03-29T16:05:50.800Z,14.40
2019-03-29T16:08:54.265Z,14.40
2019-03-29T16:11:57.769Z,14.30
2019-03-29T16:15:01.227Z,14.20
2019-03-29T16:18:04.656Z,14.20
2019-03-29T16:21:08.108Z,14.10
2019-03-29T16:24:11.573Z,14.00
2019-03-29T16:27:15.108Z,13.90
2019-03-29T16:30:18.703Z,13.90
2019-03-29T16:33:22.173Z,13.90
2019-03-29T16:36:25.633Z,13.80
2019-03-29T16:39:29.062Z,13.70
2019-03-29T16:42:32.514Z,13.70
2019-03-29T16:45:47.341Z,13.60
2019-03-29T16:48:41.144Z,13.50
2019-03-29T16:51:44.656Z,13.40
2019-03-29T16:54:48.124Z,13.40
2019-03-29T16:57:51.562Z,13.30
2019-03-29T17:00:55.028Z,13.20
2019-03-29T17:03:58.461Z,13.20
2019-03-29T17:07:01.917Z,13.10
2019-03-29T17:10:08.811Z,13.00
2019-03-29T17:13:12.277Z,12.90
2019-03-29T17:16:29.437Z,12.90
2019-03-29T17:19:20.901Z,12.80
2019-03-29T17:22:24.368Z,12.70
2019-03-29T17:25:27.805Z,12.60
2019-03-29T17:28:31.305Z,12.60
2019-03-29T17:31:34.772Z,12.50
2019-03-29T17:34:38.237Z,12.40
2019-03-29T17:37:41.702Z,12.30
2019-03-29T17:40:45.150Z,12.20
2019-03-29T17:43:48.608Z,12.10
2019-03-29T17:46:52.063Z,12.10
2019-03-29T17:49:55.505Z,12.00
2019-03-29T17:52:58.970Z,11.90
2019-03-29T17:56:02.402Z,11.80
2019-03-29T17:59:05.864Z,11.70
2019-03-29T18:02:09.949Z,11.60
2019-03-29T18:05:13.457Z,11.60
2019-03-29T18:08:16.914Z,11.50
2019-03-29T18:11:20.336Z,11.40
2019-03-29T18:14:23.812Z,11.40
2019-03-29T18:17:27.340Z,11.20
2019-03-29T18:20:30.792Z,11.20
2019-03-29T18:23:34.248Z,11.10
2019-03-29T18:26:37.777Z,11.10
2019-03-29T18:29:41.213Z,11.00
2019-03-29T18:32:44.677Z,11.00
2019-03-29T18:35:48.113Z,10.90
2019-03-29T18:38:51.648Z,10.80
2019-03-29T18:41:55.078Z,10.80
2019-03-29T18:44:58.614Z,10.70
2019-03-29T18:48:02.064Z,10.80
2019-03-29T18:51:05.574Z,10.70
2019-03-29T18:54:09.038Z,10.60
2019-03-29T18:57:12.500Z,10.70
2019-03-29T19:00:19.011Z,10.60
2019-03-29T19:03:22.470Z,10.50
2019-03-29T19:06:25.932Z,10.50
2019-03-29T19:09:31.692Z,10.60
2019-03-29T19:12:34.611Z,10.60
2019-03-29T19:15:38.057Z,10.50
2019-03-29T19:18:41.520Z,10.60
2019-03-29T19:21:44.961Z,10.60
2019-03-29T19:24:48.484Z,10.60
2019-03-29T19:27:51.921Z,10.60
2019-03-29T19:30:55.389Z,10.60
2019-03-29T19:33:58.845Z,10.70
2019-03-29T19:37:02.300Z,10.60
2019-03-29T19:40:06.914Z,10.70
2019-03-29T19:43:10.356Z,10.60
2019-03-29T19:46:13.889Z,10.50
2019-03-29T19:49:17.334Z,10.50
2019-03-29T19:52:20.799Z,10.40
2019-03-29T19:55:24.234Z,10.30
2019-03-29T19:58:27.841Z,10.30
2019-03-29T20:01:31.385Z,10.30
2019-03-29T20:04:34.885Z,10.30
2019-03-29T20:07:38.336Z,10.30
2019-03-29T20:10:41.866Z,10.30
2019-03-29T20:13:45.332Z,10.30
2019-03-29T20:16:48.768Z,10.20
2019-03-29T20:19:52.256Z,10.20
2019-03-29T20:22:56.652Z,10.20
2019-03-29T20:26:00.109Z,10.20
2019-03-29T20:29:03.548Z,10.20
2019-03-29T20:32:07.021Z,10.10
2019-03-29T20:35:10.489Z,10.10
2019-03-29T20:38:14.005Z,10.00
2019-03-29T20:41:17.616Z,10.00
2019-03-29T20:44:38.332Z,9.90
2019-03-29T20:47:42.672Z,9.90
2019-03-29T20:50:46.324Z,9.80
2019-03-29T20:53:49.780Z,9.70
2019-03-29T20:56:53.242Z,9.70
2019-03-29T20:59:56.755Z,9.60
2019-03-29T21:03:00.217Z,9.70
2019-03-29T21:06:03.713Z,9.60
2019-03-29T21:09:08.207Z,9.50
2019-03-29T21:12:11.656Z,9.50
2019-03-29T21:15:15.354Z,9.50
2019-03-29T21:18:18.798Z,9.40
2019-03-29T21:21:22.240Z,9.30
2019-03-29T21:24:25.734Z,9.20
2019-03-29T21:27:29.216Z,9.10
2019-03-29T21:30:33.432Z,9.10
2019-03-29T21:33:36.892Z,9.00
2019-03-29T21:36:40.344Z,9.00
2019-03-29T21:39:43.789Z,9.00
2019-03-29T21:42:47.253Z,8.90
2019-03-29T21:45:50.707Z,9.00
2019-03-29T21:48:54.141Z,9.00
2019-03-29T21:51:57.600Z,8.90
2019-03-29T21:55:01.039Z,8.90
2019-03-29T21:58:04.563Z,8.90
2019-03-29T22:01:07.996Z,8.90
2019-03-29T22:04:11.452Z,8.80
2019-03-29T22:07:14.896Z,8.80
2019-03-29T22:10:18.339Z,8.80
2019-03-29T22:13:21.808Z,8.80
2019-03-29T22:16:25.253Z,8.70
2019-03-29T22:19:28.718Z,8.70
2019-03-29T22:22:32.172Z,8.60
2019-03-29T22:25:35.625Z,8.60
2019-03-29T22:28:39.061Z,8.60
2019-03-29T22:31:42.597Z,8.50
2019-03-29T22:34:46.065Z,8.50
2019-03-29T22:37:49.516Z,8.50
2019-03-29T22:40:52.977Z,8.40
2019-03-29T22:43:56.444Z,8.50
2019-03-29T22:46:59.876Z,8.60
2019-03-29T22:50:03.714Z,8.60
2019-03-29T22:53:07.148Z,8.60
2019-03-29T22:56:10.685Z,8.60
2019-03-29T22:59:14.128Z,8.60
2019-03-29T23:02:17.752Z,8.60
2019-03-29T23:05:21.212Z,8.60
2019-03-29T23:08:24.673Z,8.60
2019-03-29T23:11:28.106Z,8.50
2019-03-29T23:14:31.560Z,8.40
2019-03-29T23:17:35.001Z,8.40
2019-03-29T23:20:38.464Z,8.40
2019-03-29T23:23:41.900Z,8.40
2019-03-29T23:26:45.371Z,8.40
2019-03-29T23:29:48.805Z,8.30
2019-03-29T23:32:52.281Z,8.30
2019-03-29T23:35:55.721Z,8.20
2019-03-29T23:38:59.180Z,8.10
2019-03-29T23:42:02.629Z,8.10
2019-03-29T23:45:07.233Z,8.00
2019-03-29T23:48:10.677Z,8.00
2019-03-29T23:51:14.140Z,8.00
2019-03-29T23:54:17.576Z,7.90
2019-03-29T23:57:21.040Z,7.80
